sensor_id;sensor_type;location;lat;lon;timestamp;P1;durP1;ratioP1;P2;durP2;ratioP2
15126;SDS011;7664;52.008;4.748;2022-12-18T00:00:07;52.65;;;21.10;;
15126;SDS011;7664;52.008;4.748;2022-12-18T00:02:43;45.97;;;18.85;;
15126;SDS011;7664;52.008;4.748;2022-12-18T00:05:12;45.70;;;18.75;;
15126;SDS011;7664;52.008;4.748;2022-12-18T00:07:40;44.60;;;17.63;;
15126;SDS011;7664;52.008;4.748;2022-12-18T00:10:10;50.22;;;20.85;;
15126;SDS011;7664;52.008;4.748;2022-12-18T00:12:43;54.95;;;23.92;;
15126;SDS011;7664;52.008;4.748;2022-12-18T00:15:12;51.58;;;23.02;;
15126;SDS011;7664;52.008;4.748;2022-12-18T00:17:40;52.20;;;22.55;;
15126;SDS011;7664;52.008;4.748;2022-12-18T00:20:08;48.03;;;21.17;;
15126;SDS011;7664;52.008;4.748;2022-12-18T00:22:37;48.40;;;22.00;;
15126;SDS011;7664;52.008;4.748;2022-12-18T00:25:05;48.55;;;21.40;;
15126;SDS011;7664;52.008;4.748;2022-12-18T00:27:35;42.88;;;20.08;;
15126;SDS011;7664;52.008;4.748;2022-12-18T00:30:04;46.97;;;22.48;;
15126;SDS011;7664;52.008;4.748;2022-12-18T00:32:32;47.20;;;22.35;;
15126;SDS011;7664;52.008;4.748;2022-12-18T00:35:01;49.05;;;22.20;;
15126;SDS011;7664;52.008;4.748;2022-12-18T00:37:30;56.80;;;23.85;;
15126;SDS011;7664;52.008;4.748;2022-12-18T00:39:58;54.97;;;22.40;;
15126;SDS011;7664;52.008;4.748;2022-12-18T00:42:27;57.03;;;22.50;;
15126;SDS011;7664;52.008;4.748;2022-12-18T00:45:15;51.72;;;22.20;;
15126;SDS011;7664;52.008;4.748;2022-12-18T00:47:43;45.97;;;20.35;;
15126;SDS011;7664;52.008;4.748;2022-12-18T00:50:12;43.63;;;21.13;;
15126;SDS011;7664;52.008;4.748;2022-12-18T00:52:40;43.47;;;20.63;;
15126;SDS011;7664;52.008;4.748;2022-12-18T00:55:09;50.20;;;21.23;;
15126;SDS011;7664;52.008;4.748;2022-12-18T00:57:38;41.90;;;20.13;;
15126;SDS011;7664;52.008;4.748;2022-12-18T01:00:07;48.72;;;21.67;;
15126;SDS011;7664;52.008;4.748;2022-12-18T01:02:38;44.40;;;21.10;;
15126;SDS011;7664;52.008;4.748;2022-12-18T01:05:07;43.50;;;21.17;;
15126;SDS011;7664;52.008;4.748;2022-12-18T01:07:36;43.50;;;19.63;;
15126;SDS011;7664;52.008;4.748;2022-12-18T01:10:05;47.63;;;22.48;;
15126;SDS011;7664;52.008;4.748;2022-12-18T01:12:34;48.17;;;22.17;;
15126;SDS011;7664;52.008;4.748;2022-12-18T01:15:02;45.75;;;20.60;;
15126;SDS011;7664;52.008;4.748;2022-12-18T01:17:31;43.40;;;19.88;;
15126;SDS011;7664;52.008;4.748;2022-12-18T01:20:01;39.58;;;19.65;;
15126;SDS011;7664;52.008;4.748;2022-12-18T01:22:34;51.20;;;22.02;;
15126;SDS011;7664;52.008;4.748;2022-12-18T01:25:03;50.70;;;20.63;;
15126;SDS011;7664;52.008;4.748;2022-12-18T01:27:32;46.22;;;20.90;;
15126;SDS011;7664;52.008;4.748;2022-12-18T01:30:03;44.72;;;20.73;;
15126;SDS011;7664;52.008;4.748;2022-12-18T01:32:31;39.63;;;18.98;;
15126;SDS011;7664;52.008;4.748;2022-12-18T01:35:02;45.45;;;19.80;;
15126;SDS011;7664;52.008;4.748;2022-12-18T01:37:31;36.30;;;18.30;;
15126;SDS011;7664;52.008;4.748;2022-12-18T01:39:59;42.33;;;18.92;;
15126;SDS011;7664;52.008;4.748;2022-12-18T01:42:28;41.67;;;19.90;;
15126;SDS011;7664;52.008;4.748;2022-12-18T01:45:00;41.95;;;20.15;;
15126;SDS011;7664;52.008;4.748;2022-12-18T01:47:30;36.22;;;18.67;;
15126;SDS011;7664;52.008;4.748;2022-12-18T01:50:01;41.20;;;20.55;;
15126;SDS011;7664;52.008;4.748;2022-12-18T01:52:31;41.85;;;20.90;;
15126;SDS011;7664;52.008;4.748;2022-12-18T01:55:02;46.65;;;21.65;;
15126;SDS011;7664;52.008;4.748;2022-12-18T01:57:31;53.45;;;23.33;;
15126;SDS011;7664;52.008;4.748;2022-12-18T02:00:01;42.20;;;20.27;;
15126;SDS011;7664;52.008;4.748;2022-12-18T02:02:38;41.63;;;18.35;;
15126;SDS011;7664;52.008;4.748;2022-12-18T02:05:07;43.28;;;20.63;;
15126;SDS011;7664;52.008;4.748;2022-12-18T02:07:40;42.08;;;19.30;;
15126;SDS011;7664;52.008;4.748;2022-12-18T02:10:12;39.22;;;18.83;;
15126;SDS011;7664;52.008;4.748;2022-12-18T02:12:42;49.55;;;19.88;;
15126;SDS011;7664;52.008;4.748;2022-12-18T02:15:13;40.80;;;19.15;;
15126;SDS011;7664;52.008;4.748;2022-12-18T02:17:47;43.05;;;20.80;;
15126;SDS011;7664;52.008;4.748;2022-12-18T02:20:18;38.85;;;18.38;;
15126;SDS011;7664;52.008;4.748;2022-12-18T02:22:58;42.42;;;21.63;;
15126;SDS011;7664;52.008;4.748;2022-12-18T02:25:33;46.83;;;21.30;;
15126;SDS011;7664;52.008;4.748;2022-12-18T02:28:09;40.22;;;20.10;;
15126;SDS011;7664;52.008;4.748;2022-12-18T02:30:39;43.30;;;19.45;;
15126;SDS011;7664;52.008;4.748;2022-12-18T02:33:09;40.80;;;19.00;;
15126;SDS011;7664;52.008;4.748;2022-12-18T02:35:42;39.33;;;19.05;;
15126;SDS011;7664;52.008;4.748;2022-12-18T02:38:11;50.67;;;22.08;;
15126;SDS011;7664;52.008;4.748;2022-12-18T02:40:42;44.80;;;21.63;;
15126;SDS011;7664;52.008;4.748;2022-12-18T02:43:16;45.50;;;20.27;;
15126;SDS011;7664;52.008;4.748;2022-12-18T02:45:49;36.63;;;18.35;;
15126;SDS011;7664;52.008;4.748;2022-12-18T02:48:18;38.58;;;18.08;;
15126;SDS011;7664;52.008;4.748;2022-12-18T02:50:50;39.08;;;19.90;;
15126;SDS011;7664;52.008;4.748;2022-12-18T02:53:23;43.72;;;19.42;;
15126;SDS011;7664;52.008;4.748;2022-12-18T02:55:56;34.60;;;17.05;;
15126;SDS011;7664;52.008;4.748;2022-12-18T02:58:30;36.42;;;18.60;;
15126;SDS011;7664;52.008;4.748;2022-12-18T03:01:06;35.78;;;18.42;;
15126;SDS011;7664;52.008;4.748;2022-12-18T03:03:39;35.10;;;17.63;;
15126;SDS011;7664;52.008;4.748;2022-12-18T03:06:12;34.80;;;18.15;;
15126;SDS011;7664;52.008;4.748;2022-12-18T03:08:43;34.47;;;17.80;;
15126;SDS011;7664;52.008;4.748;2022-12-18T03:11:14;38.47;;;17.35;;
15126;SDS011;7664;52.008;4.748;2022-12-18T03:14:05;33.90;;;16.75;;
15126;SDS011;7664;52.008;4.748;2022-12-18T03:16:35;36.85;;;20.13;;
15126;SDS011;7664;52.008;4.748;2022-12-18T03:19:06;34.53;;;17.45;;
15126;SDS011;7664;52.008;4.748;2022-12-18T03:21:39;32.60;;;17.15;;
15126;SDS011;7664;52.008;4.748;2022-12-18T03:24:08;32.58;;;17.20;;
15126;SDS011;7664;52.008;4.748;2022-12-18T03:26:38;31.33;;;17.85;;
15126;SDS011;7664;52.008;4.748;2022-12-18T03:29:12;36.58;;;19.20;;
15126;SDS011;7664;52.008;4.748;2022-12-18T03:31:42;33.58;;;17.15;;
15126;SDS011;7664;52.008;4.748;2022-12-18T03:34:14;35.20;;;18.10;;
15126;SDS011;7664;52.008;4.748;2022-12-18T03:36:45;35.90;;;17.73;;
15126;SDS011;7664;52.008;4.748;2022-12-18T03:39:14;37.00;;;18.85;;
15126;SDS011;7664;52.008;4.748;2022-12-18T03:41:51;31.70;;;16.55;;
15126;SDS011;7664;52.008;4.748;2022-12-18T03:44:43;36.97;;;18.85;;
15126;SDS011;7664;52.008;4.748;2022-12-18T03:47:15;39.58;;;19.77;;
15126;SDS011;7664;52.008;4.748;2022-12-18T03:49:46;38.30;;;20.27;;
15126;SDS011;7664;52.008;4.748;2022-12-18T03:52:17;41.95;;;21.30;;
15126;SDS011;7664;52.008;4.748;2022-12-18T03:54:46;40.40;;;19.90;;
15126;SDS011;7664;52.008;4.748;2022-12-18T03:57:17;37.95;;;17.75;;
15126;SDS011;7664;52.008;4.748;2022-12-18T03:59:54;51.83;;;23.45;;
15126;SDS011;7664;52.008;4.748;2022-12-18T04:02:28;46.83;;;22.27;;
15126;SDS011;7664;52.008;4.748;2022-12-18T04:05:01;48.42;;;22.33;;
15126;SDS011;7664;52.008;4.748;2022-12-18T04:07:33;41.08;;;20.55;;
15126;SDS011;7664;52.008;4.748;2022-12-18T04:10:03;44.15;;;21.33;;
15126;SDS011;7664;52.008;4.748;2022-12-18T04:12:37;41.72;;;19.38;;
15126;SDS011;7664;52.008;4.748;2022-12-18T04:15:10;46.65;;;20.70;;
15126;SDS011;7664;52.008;4.748;2022-12-18T04:17:42;37.47;;;19.25;;
15126;SDS011;7664;52.008;4.748;2022-12-18T04:20:14;43.15;;;21.08;;
15126;SDS011;7664;52.008;4.748;2022-12-18T04:22:43;40.53;;;20.42;;
15126;SDS011;7664;52.008;4.748;2022-12-18T04:25:13;38.85;;;20.60;;
15126;SDS011;7664;52.008;4.748;2022-12-18T04:27:53;41.60;;;20.02;;
15126;SDS011;7664;52.008;4.748;2022-12-18T04:30:23;44.08;;;21.50;;
15126;SDS011;7664;52.008;4.748;2022-12-18T04:32:51;39.05;;;19.52;;
15126;SDS011;7664;52.008;4.748;2022-12-18T04:35:21;39.50;;;19.17;;
15126;SDS011;7664;52.008;4.748;2022-12-18T04:37:49;39.70;;;20.15;;
15126;SDS011;7664;52.008;4.748;2022-12-18T04:40:17;43.15;;;21.92;;
15126;SDS011;7664;52.008;4.748;2022-12-18T04:42:47;40.88;;;18.58;;
15126;SDS011;7664;52.008;4.748;2022-12-18T04:45:16;36.85;;;18.92;;
15126;SDS011;7664;52.008;4.748;2022-12-18T04:47:45;37.63;;;18.90;;
15126;SDS011;7664;52.008;4.748;2022-12-18T04:50:14;35.85;;;16.58;;
15126;SDS011;7664;52.008;4.748;2022-12-18T04:52:44;42.15;;;20.73;;
15126;SDS011;7664;52.008;4.748;2022-12-18T04:55:13;43.45;;;19.52;;
15126;SDS011;7664;52.008;4.748;2022-12-18T04:57:42;38.90;;;18.80;;
15126;SDS011;7664;52.008;4.748;2022-12-18T05:00:11;38.80;;;19.98;;
15126;SDS011;7664;52.008;4.748;2022-12-18T05:02:39;44.05;;;22.08;;
15126;SDS011;7664;52.008;4.748;2022-12-18T05:05:09;42.17;;;20.58;;
15126;SDS011;7664;52.008;4.748;2022-12-18T05:07:38;35.13;;;17.95;;
15126;SDS011;7664;52.008;4.748;2022-12-18T05:10:07;41.50;;;19.70;;
15126;SDS011;7664;52.008;4.748;2022-12-18T05:12:35;38.40;;;19.67;;
15126;SDS011;7664;52.008;4.748;2022-12-18T05:15:26;41.35;;;20.05;;
15126;SDS011;7664;52.008;4.748;2022-12-18T05:17:55;44.42;;;19.48;;
15126;SDS011;7664;52.008;4.748;2022-12-18T05:20:25;43.13;;;20.48;;
15126;SDS011;7664;52.008;4.748;2022-12-18T05:22:54;33.08;;;18.13;;
15126;SDS011;7664;52.008;4.748;2022-12-18T05:25:23;42.50;;;20.15;;
15126;SDS011;7664;52.008;4.748;2022-12-18T05:27:51;39.53;;;18.48;;
15126;SDS011;7664;52.008;4.748;2022-12-18T05:30:20;37.00;;;19.38;;
15126;SDS011;7664;52.008;4.748;2022-12-18T05:32:49;35.53;;;19.58;;
15126;SDS011;7664;52.008;4.748;2022-12-18T05:35:17;34.08;;;17.30;;
15126;SDS011;7664;52.008;4.748;2022-12-18T05:37:47;33.47;;;18.17;;
15126;SDS011;7664;52.008;4.748;2022-12-18T05:40:15;35.70;;;18.33;;
15126;SDS011;7664;52.008;4.748;2022-12-18T05:42:43;35.95;;;18.55;;
15126;SDS011;7664;52.008;4.748;2022-12-18T05:45:14;33.45;;;16.67;;
15126;SDS011;7664;52.008;4.748;2022-12-18T05:47:43;34.30;;;17.55;;
15126;SDS011;7664;52.008;4.748;2022-12-18T05:50:12;33.75;;;17.00;;
15126;SDS011;7664;52.008;4.748;2022-12-18T05:52:40;33.58;;;17.40;;
15126;SDS011;7664;52.008;4.748;2022-12-18T05:55:10;29.02;;;15.82;;
15126;SDS011;7664;52.008;4.748;2022-12-18T05:57:38;29.15;;;16.55;;
15126;SDS011;7664;52.008;4.748;2022-12-18T06:00:07;30.50;;;17.83;;
15126;SDS011;7664;52.008;4.748;2022-12-18T06:02:37;32.20;;;17.88;;
15126;SDS011;7664;52.008;4.748;2022-12-18T06:05:06;34.65;;;16.23;;
15126;SDS011;7664;52.008;4.748;2022-12-18T06:07:35;33.95;;;16.50;;
15126;SDS011;7664;52.008;4.748;2022-12-18T06:10:03;29.88;;;16.40;;
15126;SDS011;7664;52.008;4.748;2022-12-18T06:12:33;31.73;;;16.73;;
15126;SDS011;7664;52.008;4.748;2022-12-18T06:15:02;26.95;;;15.00;;
15126;SDS011;7664;52.008;4.748;2022-12-18T06:17:30;34.00;;;17.17;;
15126;SDS011;7664;52.008;4.748;2022-12-18T06:19:59;31.55;;;17.02;;
15126;SDS011;7664;52.008;4.748;2022-12-18T06:22:27;29.55;;;16.35;;
15126;SDS011;7664;52.008;4.748;2022-12-18T06:24:56;32.38;;;15.77;;
15126;SDS011;7664;52.008;4.748;2022-12-18T06:27:25;30.83;;;16.05;;
15126;SDS011;7664;52.008;4.748;2022-12-18T06:29:55;34.38;;;16.63;;
15126;SDS011;7664;52.008;4.748;2022-12-18T06:32:23;29.90;;;15.95;;
15126;SDS011;7664;52.008;4.748;2022-12-18T06:34:55;32.90;;;17.92;;
15126;SDS011;7664;52.008;4.748;2022-12-18T06:37:23;29.63;;;15.98;;
15126;SDS011;7664;52.008;4.748;2022-12-18T06:39:52;28.98;;;15.20;;
15126;SDS011;7664;52.008;4.748;2022-12-18T06:42:21;31.65;;;17.20;;
15126;SDS011;7664;52.008;4.748;2022-12-18T06:44:49;27.67;;;14.38;;
15126;SDS011;7664;52.008;4.748;2022-12-18T06:47:19;35.60;;;16.60;;
15126;SDS011;7664;52.008;4.748;2022-12-18T06:49:48;22.92;;;13.63;;
15126;SDS011;7664;52.008;4.748;2022-12-18T06:52:16;28.60;;;15.57;;
15126;SDS011;7664;52.008;4.748;2022-12-18T06:54:45;26.83;;;15.30;;
15126;SDS011;7664;52.008;4.748;2022-12-18T06:57:13;29.95;;;15.70;;
15126;SDS011;7664;52.008;4.748;2022-12-18T06:59:42;30.15;;;16.45;;
15126;SDS011;7664;52.008;4.748;2022-12-18T07:02:11;27.55;;;15.23;;
15126;SDS011;7664;52.008;4.748;2022-12-18T07:04:41;27.48;;;15.48;;
15126;SDS011;7664;52.008;4.748;2022-12-18T07:07:10;25.30;;;14.20;;
15126;SDS011;7664;52.008;4.748;2022-12-18T07:09:38;26.13;;;15.27;;
15126;SDS011;7664;52.008;4.748;2022-12-18T07:12:06;27.05;;;15.43;;
15126;SDS011;7664;52.008;4.748;2022-12-18T07:14:36;28.83;;;16.42;;
15126;SDS011;7664;52.008;4.748;2022-12-18T07:17:12;27.88;;;15.63;;
15126;SDS011;7664;52.008;4.748;2022-12-18T07:19:43;26.23;;;14.80;;
15126;SDS011;7664;52.008;4.748;2022-12-18T07:22:13;29.27;;;15.75;;
15126;SDS011;7664;52.008;4.748;2022-12-18T07:24:41;27.13;;;15.90;;
15126;SDS011;7664;52.008;4.748;2022-12-18T07:27:10;27.38;;;16.05;;
15126;SDS011;7664;52.008;4.748;2022-12-18T07:29:38;25.83;;;16.20;;
15126;SDS011;7664;52.008;4.748;2022-12-18T07:32:07;26.48;;;15.60;;
15126;SDS011;7664;52.008;4.748;2022-12-18T07:34:35;30.92;;;16.77;;
15126;SDS011;7664;52.008;4.748;2022-12-18T07:37:05;32.80;;;17.75;;
15126;SDS011;7664;52.008;4.748;2022-12-18T07:39:33;28.45;;;16.88;;
15126;SDS011;7664;52.008;4.748;2022-12-18T07:42:02;28.42;;;17.45;;
15126;SDS011;7664;52.008;4.748;2022-12-18T07:44:48;27.92;;;16.17;;
15126;SDS011;7664;52.008;4.748;2022-12-18T07:47:17;26.95;;;16.10;;
15126;SDS011;7664;52.008;4.748;2022-12-18T07:49:45;25.30;;;15.55;;
15126;SDS011;7664;52.008;4.748;2022-12-18T07:52:15;30.25;;;17.50;;
15126;SDS011;7664;52.008;4.748;2022-12-18T07:55:10;27.35;;;16.40;;
15126;SDS011;7664;52.008;4.748;2022-12-18T07:57:43;24.45;;;15.55;;
15126;SDS011;7664;52.008;4.748;2022-12-18T08:00:19;25.83;;;15.45;;
15126;SDS011;7664;52.008;4.748;2022-12-18T08:02:49;24.20;;;15.18;;
15126;SDS011;7664;52.008;4.748;2022-12-18T08:05:23;27.75;;;14.30;;
15126;SDS011;7664;52.008;4.748;2022-12-18T08:07:56;24.13;;;12.98;;
15126;SDS011;7664;52.008;4.748;2022-12-18T08:10:32;24.80;;;15.50;;
15126;SDS011;7664;52.008;4.748;2022-12-18T08:13:02;25.20;;;15.10;;
15126;SDS011;7664;52.008;4.748;2022-12-18T08:15:33;25.80;;;15.27;;
15126;SDS011;7664;52.008;4.748;2022-12-18T08:18:11;22.20;;;14.18;;
15126;SDS011;7664;52.008;4.748;2022-12-18T08:20:40;22.95;;;14.68;;
15126;SDS011;7664;52.008;4.748;2022-12-18T08:23:13;23.52;;;14.48;;
15126;SDS011;7664;52.008;4.748;2022-12-18T08:25:44;24.98;;;13.65;;
15126;SDS011;7664;52.008;4.748;2022-12-18T08:28:13;25.08;;;13.65;;
15126;SDS011;7664;52.008;4.748;2022-12-18T08:30:44;26.10;;;15.32;;
15126;SDS011;7664;52.008;4.748;2022-12-18T08:33:13;27.33;;;15.48;;
15126;SDS011;7664;52.008;4.748;2022-12-18T08:35:44;25.52;;;13.82;;
15126;SDS011;7664;52.008;4.748;2022-12-18T08:38:18;28.00;;;14.10;;
15126;SDS011;7664;52.008;4.748;2022-12-18T08:40:53;24.55;;;13.93;;
15126;SDS011;7664;52.008;4.748;2022-12-18T08:43:25;26.17;;;14.80;;
15126;SDS011;7664;52.008;4.748;2022-12-18T08:46:15;22.17;;;14.30;;
15126;SDS011;7664;52.008;4.748;2022-12-18T08:48:51;24.48;;;14.68;;
15126;SDS011;7664;52.008;4.748;2022-12-18T08:51:21;24.00;;;15.00;;
15126;SDS011;7664;52.008;4.748;2022-12-18T08:53:56;26.30;;;14.23;;
15126;SDS011;7664;52.008;4.748;2022-12-18T08:56:27;24.42;;;15.20;;
15126;SDS011;7664;52.008;4.748;2022-12-18T08:59:00;25.52;;;15.60;;
15126;SDS011;7664;52.008;4.748;2022-12-18T09:01:30;24.25;;;14.68;;
15126;SDS011;7664;52.008;4.748;2022-12-18T09:03:59;19.40;;;13.20;;
15126;SDS011;7664;52.008;4.748;2022-12-18T09:06:27;23.42;;;14.15;;
15126;SDS011;7664;52.008;4.748;2022-12-18T09:09:04;27.05;;;16.63;;
15126;SDS011;7664;52.008;4.748;2022-12-18T09:11:33;21.92;;;13.40;;
15126;SDS011;7664;52.008;4.748;2022-12-18T09:14:02;25.77;;;15.23;;
15126;SDS011;7664;52.008;4.748;2022-12-18T09:16:37;24.95;;;15.20;;
15126;SDS011;7664;52.008;4.748;2022-12-18T09:19:12;25.17;;;15.15;;
15126;SDS011;7664;52.008;4.748;2022-12-18T09:21:40;22.35;;;14.38;;
15126;SDS011;7664;52.008;4.748;2022-12-18T09:24:15;22.30;;;14.55;;
15126;SDS011;7664;52.008;4.748;2022-12-18T09:26:44;22.60;;;13.55;;
15126;SDS011;7664;52.008;4.748;2022-12-18T09:29:24;23.48;;;14.13;;
15126;SDS011;7664;52.008;4.748;2022-12-18T09:32:11;21.52;;;13.55;;
15126;SDS011;7664;52.008;4.748;2022-12-18T09:34:47;28.00;;;14.15;;
15126;SDS011;7664;52.008;4.748;2022-12-18T09:37:15;22.70;;;14.70;;
15126;SDS011;7664;52.008;4.748;2022-12-18T09:39:47;29.73;;;14.85;;
15126;SDS011;7664;52.008;4.748;2022-12-18T09:42:22;21.65;;;14.40;;
15126;SDS011;7664;52.008;4.748;2022-12-18T09:44:57;23.77;;;14.43;;
15126;SDS011;7664;52.008;4.748;2022-12-18T09:47:27;24.13;;;14.65;;
15126;SDS011;7664;52.008;4.748;2022-12-18T09:50:03;25.08;;;14.30;;
15126;SDS011;7664;52.008;4.748;2022-12-18T09:52:49;23.45;;;14.00;;
15126;SDS011;7664;52.008;4.748;2022-12-18T09:55:22;22.52;;;13.50;;
15126;SDS011;7664;52.008;4.748;2022-12-18T09:58:05;20.83;;;13.95;;
15126;SDS011;7664;52.008;4.748;2022-12-18T10:00:35;21.65;;;13.45;;
15126;SDS011;7664;52.008;4.748;2022-12-18T10:03:08;20.95;;;13.13;;
15126;SDS011;7664;52.008;4.748;2022-12-18T10:05:40;27.88;;;14.80;;
15126;SDS011;7664;52.008;4.748;2022-12-18T10:08:13;23.80;;;15.15;;
15126;SDS011;7664;52.008;4.748;2022-12-18T10:10:51;21.95;;;14.18;;
15126;SDS011;7664;52.008;4.748;2022-12-18T10:13:22;19.95;;;12.00;;
15126;SDS011;7664;52.008;4.748;2022-12-18T10:16:00;22.42;;;13.30;;
15126;SDS011;7664;52.008;4.748;2022-12-18T10:18:36;24.25;;;14.05;;
15126;SDS011;7664;52.008;4.748;2022-12-18T10:21:09;23.55;;;14.55;;
15126;SDS011;7664;52.008;4.748;2022-12-18T10:23:41;23.00;;;13.90;;
15126;SDS011;7664;52.008;4.748;2022-12-18T10:26:15;22.63;;;13.85;;
15126;SDS011;7664;52.008;4.748;2022-12-18T10:28:48;22.75;;;13.73;;
15126;SDS011;7664;52.008;4.748;2022-12-18T10:31:19;21.20;;;12.57;;
15126;SDS011;7664;52.008;4.748;2022-12-18T10:33:53;22.35;;;12.40;;
15126;SDS011;7664;52.008;4.748;2022-12-18T10:36:27;21.85;;;14.40;;
15126;SDS011;7664;52.008;4.748;2022-12-18T10:39:07;22.35;;;13.20;;
15126;SDS011;7664;52.008;4.748;2022-12-18T10:41:43;28.40;;;14.07;;
15126;SDS011;7664;52.008;4.748;2022-12-18T10:44:16;22.73;;;13.55;;
15126;SDS011;7664;52.008;4.748;2022-12-18T10:46:45;20.35;;;13.48;;
15126;SDS011;7664;52.008;4.748;2022-12-18T10:49:18;23.83;;;13.25;;
15126;SDS011;7664;52.008;4.748;2022-12-18T10:51:47;23.38;;;13.45;;
15126;SDS011;7664;52.008;4.748;2022-12-18T10:54:16;24.25;;;14.30;;
15126;SDS011;7664;52.008;4.748;2022-12-18T10:56:47;22.55;;;14.00;;
15126;SDS011;7664;52.008;4.748;2022-12-18T10:59:16;23.45;;;12.48;;
15126;SDS011;7664;52.008;4.748;2022-12-18T11:01:46;22.35;;;13.57;;
15126;SDS011;7664;52.008;4.748;2022-12-18T11:04:16;26.48;;;13.60;;
15126;SDS011;7664;52.008;4.748;2022-12-18T11:06:55;21.05;;;11.45;;
15126;SDS011;7664;52.008;4.748;2022-12-18T11:09:24;20.55;;;11.18;;
15126;SDS011;7664;52.008;4.748;2022-12-18T11:11:55;17.95;;;10.45;;
15126;SDS011;7664;52.008;4.748;2022-12-18T11:14:26;23.05;;;12.75;;
15126;SDS011;7664;52.008;4.748;2022-12-18T11:16:55;21.42;;;11.98;;
15126;SDS011;7664;52.008;4.748;2022-12-18T11:19:44;24.63;;;12.88;;
15126;SDS011;7664;52.008;4.748;2022-12-18T11:22:19;23.83;;;11.95;;
15126;SDS011;7664;52.008;4.748;2022-12-18T11:24:52;20.48;;;11.63;;
15126;SDS011;7664;52.008;4.748;2022-12-18T11:27:46;20.15;;;11.13;;
15126;SDS011;7664;52.008;4.748;2022-12-18T11:30:20;21.10;;;11.95;;
15126;SDS011;7664;52.008;4.748;2022-12-18T11:32:49;21.75;;;11.88;;
15126;SDS011;7664;52.008;4.748;2022-12-18T11:35:20;19.67;;;11.38;;
15126;SDS011;7664;52.008;4.748;2022-12-18T11:37:51;17.52;;;10.80;;
15126;SDS011;7664;52.008;4.748;2022-12-18T11:40:25;21.60;;;10.35;;
15126;SDS011;7664;52.008;4.748;2022-12-18T11:42:58;20.95;;;11.25;;
15126;SDS011;7664;52.008;4.748;2022-12-18T11:45:30;17.80;;;10.35;;
15126;SDS011;7664;52.008;4.748;2022-12-18T11:48:02;20.90;;;11.40;;
15126;SDS011;7664;52.008;4.748;2022-12-18T11:50:45;25.48;;;11.13;;
15126;SDS011;7664;52.008;4.748;2022-12-18T11:53:14;21.60;;;10.80;;
15126;SDS011;7664;52.008;4.748;2022-12-18T11:55:46;21.67;;;10.80;;
15126;SDS011;7664;52.008;4.748;2022-12-18T11:58:21;21.80;;;11.27;;
15126;SDS011;7664;52.008;4.748;2022-12-18T12:00:58;19.15;;;10.85;;
15126;SDS011;7664;52.008;4.748;2022-12-18T12:03:39;17.65;;;10.55;;
15126;SDS011;7664;52.008;4.748;2022-12-18T12:06:13;18.20;;;11.13;;
15126;SDS011;7664;52.008;4.748;2022-12-18T12:08:49;16.98;;;9.98;;
15126;SDS011;7664;52.008;4.748;2022-12-18T12:11:20;21.70;;;11.02;;
15126;SDS011;7664;52.008;4.748;2022-12-18T12:13:56;19.00;;;10.88;;
15126;SDS011;7664;52.008;4.748;2022-12-18T12:16:29;19.70;;;11.45;;
15126;SDS011;7664;52.008;4.748;2022-12-18T12:19:07;20.33;;;10.52;;
15126;SDS011;7664;52.008;4.748;2022-12-18T12:21:40;24.92;;;12.48;;
15126;SDS011;7664;52.008;4.748;2022-12-18T12:24:12;21.20;;;12.10;;
15126;SDS011;7664;52.008;4.748;2022-12-18T12:26:49;18.00;;;11.07;;
15126;SDS011;7664;52.008;4.748;2022-12-18T12:29:26;23.05;;;11.77;;
15126;SDS011;7664;52.008;4.748;2022-12-18T12:32:02;23.88;;;12.30;;
15126;SDS011;7664;52.008;4.748;2022-12-18T12:34:34;22.02;;;11.00;;
15126;SDS011;7664;52.008;4.748;2022-12-18T12:37:11;22.88;;;10.25;;
15126;SDS011;7664;52.008;4.748;2022-12-18T12:39:52;23.50;;;11.63;;
15126;SDS011;7664;52.008;4.748;2022-12-18T12:42:23;23.80;;;11.40;;
15126;SDS011;7664;52.008;4.748;2022-12-18T12:45:15;20.45;;;11.27;;
15126;SDS011;7664;52.008;4.748;2022-12-18T12:47:44;17.40;;;10.65;;
15126;SDS011;7664;52.008;4.748;2022-12-18T12:50:15;18.13;;;10.32;;
15126;SDS011;7664;52.008;4.748;2022-12-18T12:52:58;22.45;;;11.13;;
15126;SDS011;7664;52.008;4.748;2022-12-18T12:56:06;19.42;;;10.82;;
15126;SDS011;7664;52.008;4.748;2022-12-18T12:58:45;21.52;;;11.75;;
15126;SDS011;7664;52.008;4.748;2022-12-18T13:01:22;24.15;;;11.18;;
15126;SDS011;7664;52.008;4.748;2022-12-18T13:04:00;22.40;;;11.52;;
15126;SDS011;7664;52.008;4.748;2022-12-18T13:06:53;18.08;;;11.02;;
15126;SDS011;7664;52.008;4.748;2022-12-18T13:09:34;24.35;;;11.60;;
15126;SDS011;7664;52.008;4.748;2022-12-18T13:12:08;19.80;;;11.57;;
15126;SDS011;7664;52.008;4.748;2022-12-18T13:15:18;18.90;;;10.98;;
15126;SDS011;7664;52.008;4.748;2022-12-18T13:18:04;21.48;;;11.20;;
15126;SDS011;7664;52.008;4.748;2022-12-18T13:23:30;21.58;;;11.55;;
15126;SDS011;7664;52.008;4.748;2022-12-18T13:26:37;19.42;;;11.27;;
15126;SDS011;7664;52.008;4.748;2022-12-18T13:38:16;20.55;;;11.07;;
15126;SDS011;7664;52.008;4.748;2022-12-18T13:43:38;24.23;;;12.93;;
15126;SDS011;7664;52.008;4.748;2022-12-18T13:46:20;21.50;;;12.05;;
15126;SDS011;7664;52.008;4.748;2022-12-18T13:48:59;19.13;;;10.75;;
15126;SDS011;7664;52.008;4.748;2022-12-18T13:51:38;21.48;;;11.23;;
15126;SDS011;7664;52.008;4.748;2022-12-18T13:54:30;19.90;;;12.32;;
15126;SDS011;7664;52.008;4.748;2022-12-18T13:57:00;23.20;;;12.38;;
15126;SDS011;7664;52.008;4.748;2022-12-18T13:59:33;23.45;;;10.93;;
15126;SDS011;7664;52.008;4.748;2022-12-18T14:02:11;23.83;;;13.23;;
15126;SDS011;7664;52.008;4.748;2022-12-18T14:04:58;18.92;;;11.50;;
15126;SDS011;7664;52.008;4.748;2022-12-18T14:07:28;25.17;;;13.60;;
15126;SDS011;7664;52.008;4.748;2022-12-18T14:10:19;23.48;;;12.85;;
15126;SDS011;7664;52.008;4.748;2022-12-18T14:13:19;25.90;;;12.00;;
15126;SDS011;7664;52.008;4.748;2022-12-18T14:15:51;23.27;;;12.00;;
15126;SDS011;7664;52.008;4.748;2022-12-18T14:18:32;21.95;;;12.02;;
15126;SDS011;7664;52.008;4.748;2022-12-18T14:21:17;22.52;;;12.40;;
15126;SDS011;7664;52.008;4.748;2022-12-18T14:23:46;18.83;;;11.20;;
15126;SDS011;7664;52.008;4.748;2022-12-18T14:26:23;23.92;;;13.77;;
15126;SDS011;7664;52.008;4.748;2022-12-18T14:28:53;20.75;;;12.02;;
15126;SDS011;7664;52.008;4.748;2022-12-18T14:31:23;25.45;;;12.68;;
15126;SDS011;7664;52.008;4.748;2022-12-18T14:33:52;23.02;;;12.80;;
15126;SDS011;7664;52.008;4.748;2022-12-18T14:36:22;25.02;;;13.27;;
15126;SDS011;7664;52.008;4.748;2022-12-18T14:38:51;19.75;;;11.43;;
15126;SDS011;7664;52.008;4.748;2022-12-18T14:41:21;26.33;;;12.68;;
15126;SDS011;7664;52.008;4.748;2022-12-18T14:43:51;25.08;;;14.05;;
15126;SDS011;7664;52.008;4.748;2022-12-18T14:46:32;21.85;;;12.50;;
15126;SDS011;7664;52.008;4.748;2022-12-18T14:49:03;29.20;;;12.38;;
15126;SDS011;7664;52.008;4.748;2022-12-18T14:51:33;22.17;;;12.73;;
15126;SDS011;7664;52.008;4.748;2022-12-18T14:54:02;22.27;;;12.13;;
15126;SDS011;7664;52.008;4.748;2022-12-18T14:56:34;25.20;;;12.88;;
15126;SDS011;7664;52.008;4.748;2022-12-18T14:59:17;25.20;;;13.20;;
15126;SDS011;7664;52.008;4.748;2022-12-18T15:02:23;22.50;;;10.55;;
15126;SDS011;7664;52.008;4.748;2022-12-18T15:04:46;22.25;;;13.07;;
15126;SDS011;7664;52.008;4.748;2022-12-18T15:07:25;22.77;;;12.55;;
15126;SDS011;7664;52.008;4.748;2022-12-18T15:10:01;22.02;;;11.90;;
15126;SDS011;7664;52.008;4.748;2022-12-18T15:12:33;20.00;;;11.50;;
15126;SDS011;7664;52.008;4.748;2022-12-18T15:18:03;24.98;;;12.88;;
15126;SDS011;7664;52.008;4.748;2022-12-18T15:20:38;22.20;;;12.35;;
15126;SDS011;7664;52.008;4.748;2022-12-18T15:23:13;24.00;;;12.50;;